Urb Alhambra, Puerto Rico
Current Conditions -  °F | °C
As of 11:53 PM on Saturday 25 Oct 2014 (Local Time) from TJNR Reporting Station
Few Clouds Few Clouds  
Wind Chill: 81°   Ceiling: Unl
Heat Index: 87°   Visibility: 10mi
Dew Point: 75°   Wind: 5mph
Humidity: 82%   Direction: 180°S
Pressure: 29.92"   Gusts: NA
Location:  18.3304°N, 65.6573°W
Report Text: TJNR 260353Z AUTO 18004KT 10SM FEW022 27/24 A2992 RMK AO2 SLP131 T02720239 403280244 $
Loading
Personal Weather Stations






























Interactive Weather Map
Tropical Storm Tracking
New forecast layout! Learn more

10-Day Weather Forecast

Advertisements
Track Severe Weather on mobile